Weather at Frankfurt-Hahn Airport

Public forecast

Using degrees Celsius for public forecast. Weather courtesy of forecast.io.

Current aviation weather report (METAR) for Frankfurt-Hahn Airport

2024/05/28 04:20 (retrieved 39 minutes ago)

EDFH 280420Z 27006KT 9999 BKN007 08/07 Q1019

Closest aviation forecast (TAF) to Frankfurt-Hahn Airport

Forecast is more than 6 hours old.

Closest forecast is Kleine Brogel Air Base, 100.2 nm (185.6 km) NW.

2024/05/27 19:21 Ammendment (retrieved 10 hours ago)

AMD EBBL 271815Z 2719/2807 24008KT 9999 SCT035 BKN060 TEMPO 2719/2723 6000 -SHRA SCT030TCU TEMPO 2719/2723 4000 SHRA BKN025TCU BECMG 2804/2806 20006KT